KEGI/EGI METAR and TAF weather

Enter ICAO airport designator
Station Type Date Time Source
KEGI METAR 2019/05/26 22:56 UTC NOAA

KEGI 262256Z AUTO 19008KT 10SM CLR 33/21 M RMK AO2 SLPNO T03340205 $


Station Type Date Time Source
KEGI Decoded METAR 2019/05/26 22:56 UTC NOAA

Duke Field / Eglin Auxiliary, FL, United States (KEGI) 30-39N 086-31W
May 26, 2019 - 06:56 PM EDT / 2019.05.26 2256 UTC
Wind: from the S (190 degrees) at 9 MPH (8 KT):0
Visibility: 10 mile(s):0
Sky conditions: clear
Temperature: 92.1 F (33.4 C)
Heat index: 96.6 F (35.9 C):1
Dew Point: 68.9 F (20.5 C)
Relative Humidity: 46%
ob: KEGI 262256Z AUTO 19008KT 10SM CLR 33/21 M RMK AO2 SLPNO T03340205
cycle: 23

Station Type Date Time Source
KEGI TAF 2019/05/24 05:00 UTC NOAA

TAF
AMD KEGI 240500Z 2405/2507 25006KT 9999 SCT030 QNH3010INS
TEMPO 2406/2412 4800 BR
BECMG 2411/2412 VRB06KT 9999 SCT015 SCT050 QNH3007INS
BECMG 2417/2418 20009KT 9999 SCT050 QNH3010INS TX33/2419Z TN18/2408Z LAST NO
AMDS AFT 2405 NEXT 2809

Example: see airport list